Time;durP1;ratioP1;P1;durP2;ratioP2;P2;SDS_P1;SDS_P2;PMS_P1;PMS_P2;Temp;Humidity;BMP_temperature;BMP_pressure;BME280_temperature;BME280_humidity;BME280_pressure;Samples;Min_cycle;Max_cycle;Signal;HPM_P1;HPM_P2
2024/01/20 00:02:21;;;;;;;38.17;15.50;;;-0.50;99.90;;;;;;4996821;28;20110;-59
2024/01/20 00:04:47;;;;;;;37.10;14.27;;;-0.40;99.90;;;;;;4996111;28;20106;-59
2024/01/20 00:07:13;;;;;;;36.83;13.32;;;-0.40;99.90;;;;;;4996034;28;20041;-58
2024/01/20 00:09:39;;;;;;;38.92;13.77;;;-0.50;99.90;;;;;;4996071;28;20048;-58
2024/01/20 00:12:05;;;;;;;36.67;14.20;;;-0.50;99.90;;;;;;4996829;28;20416;-58
2024/01/20 00:14:31;;;;;;;35.60;14.32;;;-0.60;99.90;;;;;;5000080;28;20343;-58
2024/01/20 00:16:57;;;;;;;33.83;13.43;;;-0.60;99.90;;;;;;4999614;28;20070;-58
2024/01/20 00:19:22;;;;;;;35.83;13.82;;;-0.60;99.90;;;;;;4999759;28;20038;-58
2024/01/20 00:21:48;;;;;;;39.45;13.85;;;-0.70;99.90;;;;;;5000468;28;20053;-57
2024/01/20 00:24:14;;;;;;;30.00;12.98;;;-0.70;99.90;;;;;;4999655;28;20034;-58
2024/01/20 00:26:40;;;;;;;39.17;14.38;;;-0.60;99.90;;;;;;4999402;28;20306;-58
2024/01/20 00:29:06;;;;;;;36.70;14.02;;;-0.70;99.90;;;;;;5000106;28;20035;-58
2024/01/20 00:31:32;;;;;;;33.83;12.68;;;-0.60;99.90;;;;;;4999040;28;20402;-58
2024/01/20 00:33:57;;;;;;;37.50;13.98;;;-0.70;99.90;;;;;;4999998;28;20375;-59
2024/01/20 00:36:23;;;;;;;35.63;14.20;;;-0.60;99.90;;;;;;4999337;28;20045;-58
2024/01/20 00:38:49;;;;;;;35.70;13.20;;;-0.70;99.90;;;;;;4999823;28;20031;-58
2024/01/20 00:41:15;;;;;;;35.35;13.23;;;-0.70;99.90;;;;;;4999231;28;20114;-58
2024/01/20 00:43:41;;;;;;;37.35;13.38;;;-0.60;99.90;;;;;;4999777;28;20088;-57
2024/01/20 00:46:06;;;;;;;37.00;12.73;;;-0.60;99.90;;;;;;5000006;28;20125;-58
2024/01/20 00:48:32;;;;;;;33.75;12.82;;;-0.70;99.90;;;;;;4999729;28;20452;-57
2024/01/20 00:50:58;;;;;;;36.33;12.63;;;-0.70;99.90;;;;;;4999944;28;20349;-57
2024/01/20 00:53:24;;;;;;;35.38;12.82;;;-0.70;99.90;;;;;;4999732;28;20041;-56
2024/01/20 00:55:53;;;;;;;34.03;12.52;;;-0.70;99.90;;;;;;4999758;28;20440;-57
2024/01/20 00:58:18;;;;;;;35.78;13.35;;;-0.70;99.90;;;;;;4999479;28;20038;-57
2024/01/20 01:00:44;;;;;;;35.30;13.10;;;-0.70;99.90;;;;;;4999474;28;20402;-59
2024/01/20 01:03:10;;;;;;;35.05;12.73;;;-0.70;99.90;;;;;;4999553;28;20041;-59
2024/01/20 01:05:36;;;;;;;30.05;11.15;;;-0.60;99.90;;;;;;4999509;28;20027;-59
2024/01/20 01:08:01;;;;;;;33.50;13.00;;;-0.70;99.90;;;;;;4998665;28;20035;-59
2024/01/20 01:10:27;;;;;;;33.30;13.00;;;-0.60;99.90;;;;;;4999383;28;20065;-59
2024/01/20 01:12:53;;;;;;;35.90;13.35;;;-0.50;99.90;;;;;;4999355;28;20061;-58
2024/01/20 01:15:19;;;;;;;35.30;14.27;;;-0.50;99.90;;;;;;4999284;28;20034;-58
2024/01/20 01:17:45;;;;;;;33.67;12.75;;;-0.50;99.90;;;;;;4998683;28;20046;-58
2024/01/20 01:20:11;;;;;;;38.25;14.45;;;-0.50;99.90;;;;;;4999106;28;20038;-58
2024/01/20 01:22:37;;;;;;;40.17;12.60;;;-0.50;99.90;;;;;;4999170;28;20039;-58
2024/01/20 01:25:03;;;;;;;34.95;13.57;;;-0.50;99.90;;;;;;4997582;28;20045;-58
2024/01/20 01:27:29;;;;;;;39.63;13.73;;;-0.50;99.90;;;;;;4999069;28;20030;-58
2024/01/20 01:29:55;;;;;;;40.72;14.60;;;-0.60;99.90;;;;;;4998969;28;20038;-58
2024/01/20 01:32:21;;;;;;;38.67;13.60;;;-0.60;99.90;;;;;;4998685;28;20046;-58
2024/01/20 01:34:47;;;;;;;38.78;13.88;;;-0.50;99.90;;;;;;4998569;28;20042;-58
2024/01/20 01:37:15;;;;;;;36.63;14.15;;;-0.50;99.90;;;;;;4998293;28;20034;-58
2024/01/20 01:39:42;;;;;;;36.67;14.00;;;-0.50;99.90;;;;;;4998730;28;20431;-58
2024/01/20 01:42:09;;;;;;;40.53;13.93;;;-0.60;99.90;;;;;;4998834;28;20295;-58
2024/01/20 01:44:35;;;;;;;40.65;14.40;;;-0.60;99.90;;;;;;4998045;28;20406;-58
2024/01/20 01:47:01;;;;;;;32.45;12.23;;;-0.60;99.90;;;;;;4998840;28;20105;-58
2024/01/20 01:49:27;;;;;;;35.58;12.45;;;-0.70;99.90;;;;;;4998650;28;20118;-58
2024/01/20 01:51:53;;;;;;;35.65;13.98;;;-0.70;99.90;;;;;;4997923;28;20401;-58
2024/01/20 01:54:19;;;;;;;32.28;12.10;;;-0.70;99.90;;;;;;4998617;28;20031;-58
2024/01/20 01:56:48;;;;;;;36.42;13.23;;;-0.70;99.90;;;;;;4998716;28;20027;-58
2024/01/20 01:59:14;;;;;;;35.28;12.18;;;-0.70;99.90;;;;;;4998240;28;20046;-58
2024/01/20 02:01:41;;;;;;;34.35;12.27;;;-0.60;99.90;;;;;;4997670;28;20349;-58
2024/01/20 02:04:06;;;;;;;36.67;13.60;;;-0.60;99.90;;;;;;4998330;28;20037;-58
2024/01/20 02:06:32;;;;;;;37.47;13.23;;;-0.60;99.90;;;;;;4998325;28;20038;-58
2024/01/20 02:08:59;;;;;;;35.20;12.80;;;-0.50;99.90;;;;;;4997594;28;20040;-58
2024/01/20 02:11:25;;;;;;;33.03;13.93;;;-0.50;99.90;;;;;;4998200;28;20060;-58
2024/01/20 02:13:51;;;;;;;36.03;13.27;;;-0.60;99.90;;;;;;4998214;28;20053;-57
2024/01/20 02:16:17;;;;;;;34.00;13.20;;;-0.70;99.90;;;;;;4998116;28;20109;-58
2024/01/20 02:18:43;;;;;;;34.90;13.00;;;-0.70;99.90;;;;;;4997238;28;20355;-58
2024/01/20 02:21:08;;;;;;;37.47;13.23;;;-0.70;99.90;;;;;;4997461;28;20026;-58
2024/01/20 02:23:41;;;;;;;32.13;13.35;;;-0.70;99.90;;;;;;4997988;28;20034;-59
2024/01/20 02:26:07;;;;;;;40.60;14.23;;;-0.60;99.90;;;;;;4997426;28;20030;-58
2024/01/20 02:28:33;;;;;;;32.60;13.02;;;-0.60;99.90;;;;;;4997887;28;20061;-58
2024/01/20 02:30:59;;;;;;;33.13;12.50;;;-0.70;99.90;;;;;;4997701;28;20398;-58
2024/01/20 02:33:24;;;;;;;31.42;12.40;;;-0.60;99.90;;;;;;4997867;28;20380;-58
2024/01/20 02:35:50;;;;;;;36.63;12.88;;;-0.60;99.90;;;;;;4997817;28;20026;-58
2024/01/20 02:38:16;;;;;;;36.50;12.68;;;-0.60;99.90;;;;;;4997060;28;20042;-58
2024/01/20 02:40:42;;;;;;;33.63;13.63;;;-0.60;99.90;;;;;;4997046;28;20337;-60
2024/01/20 02:43:07;;;;;;;37.90;12.50;;;-0.60;99.90;;;;;;4997208;28;20034;-58
2024/01/20 02:45:33;;;;;;;40.15;13.70;;;-0.60;99.90;;;;;;4997626;28;20049;-59
2024/01/20 02:47:59;;;;;;;34.42;12.73;;;-0.70;99.90;;;;;;4996993;28;20061;-58
2024/01/20 02:50:25;;;;;;;34.15;13.65;;;-0.60;99.90;;;;;;4997621;28;20065;-59
2024/01/20 02:52:54;;;;;;;33.70;13.13;;;-0.50;99.90;;;;;;4996787;28;20030;-59
2024/01/20 02:55:19;;;;;;;30.83;11.90;;;-0.50;99.90;;;;;;4996853;28;20030;-59
2024/01/20 02:57:45;;;;;;;36.05;12.48;;;-0.60;99.90;;;;;;4996773;28;20026;-58
2024/01/20 03:00:12;;;;;;;31.50;12.60;;;-0.70;99.90;;;;;;4997505;28;20053;-58
2024/01/20 03:02:37;;;;;;;29.58;12.18;;;-0.80;99.90;;;;;;4997442;28;20033;-59
2024/01/20 03:05:04;;;;;;;32.47;12.40;;;-0.80;99.90;;;;;;4996737;28;20362;-58
2024/01/20 03:07:29;;;;;;;32.92;13.02;;;-0.80;99.90;;;;;;4997477;28;20042;-58
2024/01/20 03:09:55;;;;;;;37.83;13.73;;;-0.80;99.90;;;;;;4997371;28;20045;-58
2024/01/20 03:12:21;;;;;;;29.73;12.05;;;-0.70;99.90;;;;;;4996841;28;20055;-59
2024/01/20 03:14:47;;;;;;;37.20;13.27;;;-0.70;99.90;;;;;;4997561;28;20057;-60
2024/01/20 03:17:13;;;;;;;36.67;12.73;;;-0.80;99.90;;;;;;4997328;28;20038;-58
2024/01/20 03:19:38;;;;;;;32.65;12.90;;;-0.70;99.90;;;;;;4996551;28;20089;-58
2024/01/20 03:22:04;;;;;;;33.78;12.82;;;-0.70;99.90;;;;;;4997343;28;20027;-58
2024/01/20 03:24:30;;;;;;;33.38;13.18;;;-0.70;99.90;;;;;;4996610;28;20031;-57
2024/01/20 03:26:56;;;;;;;33.03;13.65;;;-0.60;99.90;;;;;;4997422;28;20022;-58
2024/01/20 03:29:22;;;;;;;33.80;12.38;;;-0.60;99.90;;;;;;4996623;28;20117;-57
2024/01/20 03:31:48;;;;;;;27.95;12.80;;;-0.70;99.90;;;;;;4997092;28;20093;-58
2024/01/20 03:34:14;;;;;;;35.25;13.23;;;-0.80;99.90;;;;;;4997126;28;20422;-58
2024/01/20 03:36:39;;;;;;;40.13;13.68;;;-0.70;99.90;;;;;;4997221;28;20299;-58
2024/01/20 03:39:05;;;;;;;31.05;11.82;;;-0.70;99.90;;;;;;4996404;28;20088;-58
2024/01/20 03:41:31;;;;;;;36.13;14.55;;;-0.70;99.90;;;;;;4997181;28;20030;-58
2024/01/20 03:43:57;;;;;;;32.28;12.73;;;-0.70;99.90;;;;;;4997209;28;20457;-58
2024/01/20 03:46:23;;;;;;;34.85;12.85;;;-0.70;99.90;;;;;;4996343;28;20027;-59
2024/01/20 03:48:49;;;;;;;35.85;13.70;;;-0.70;99.90;;;;;;4998456;28;20390;-59
2024/01/20 03:51:15;;;;;;;32.88;12.48;;;-0.70;99.90;;;;;;5000861;28;20056;-58
2024/01/20 03:53:42;;;;;;;34.28;13.20;;;-0.80;99.90;;;;;;5000964;28;20050;-58
2024/01/20 03:56:08;;;;;;;32.15;12.15;;;-0.80;99.90;;;;;;5000708;28;20034;-57
2024/01/20 03:58:33;;;;;;;33.65;13.00;;;-0.80;99.90;;;;;;5000601;28;20050;-58
2024/01/20 04:00:59;;;;;;;36.05;12.57;;;-0.80;99.90;;;;;;5000237;28;20101;-57
2024/01/20 04:03:25;;;;;;;31.08;12.60;;;-0.80;99.90;;;;;;5000703;28;20034;-59
2024/01/20 04:05:51;;;;;;;27.63;12.18;;;-0.90;99.90;;;;;;5000045;28;20333;-58
2024/01/20 04:08:17;;;;;;;31.08;12.98;;;-0.90;99.90;;;;;;4999924;28;20030;-57
2024/01/20 04:10:42;;;;;;;33.45;13.50;;;-0.90;99.90;;;;;;5000473;28;20038;-57
2024/01/20 04:13:08;;;;;;;30.60;12.15;;;-0.80;99.90;;;;;;5000492;28;20421;-58
2024/01/20 04:15:34;;;;;;;32.58;12.85;;;-0.80;99.90;;;;;;5000449;28;20065;-57
2024/01/20 04:18:00;;;;;;;35.30;12.70;;;-0.90;99.90;;;;;;5000512;28;20026;-57
2024/01/20 04:20:26;;;;;;;31.90;13.05;;;-0.80;99.90;;;;;;5000222;28;20034;-58
2024/01/20 04:22:51;;;;;;;40.03;13.57;;;-0.80;99.90;;;;;;5000292;28;20298;-58
2024/01/20 04:25:17;;;;;;;27.13;11.35;;;-0.80;99.90;;;;;;5000504;28;20382;-57
2024/01/20 04:27:44;;;;;;;33.38;11.73;;;-0.90;99.90;;;;;;5000255;28;20026;-58
2024/01/20 04:30:11;;;;;;;29.05;12.65;;;-0.90;99.90;;;;;;5000252;28;20034;-58
2024/01/20 04:32:37;;;;;;;34.67;13.48;;;-0.90;99.90;;;;;;4999956;28;20061;-58
2024/01/20 04:35:04;;;;;;;26.33;11.38;;;-0.80;99.90;;;;;;5000107;28;20034;-58
2024/01/20 04:37:30;;;;;;;30.02;12.02;;;-0.90;99.90;;;;;;4999140;28;20096;-58
2024/01/20 04:39:56;;;;;;;29.92;11.75;;;-0.90;99.90;;;;;;4999234;28;20056;-58
2024/01/20 04:42:22;;;;;;;35.33;12.75;;;-0.90;99.90;;;;;;4999894;28;20029;-58
2024/01/20 04:44:48;;;;;;;30.55;12.43;;;-0.90;99.90;;;;;;4999151;28;20309;-58
2024/01/20 04:47:14;;;;;;;33.83;11.90;;;-0.90;99.90;;;;;;4998978;28;20023;-58
2024/01/20 04:49:40;;;;;;;30.48;12.52;;;-0.90;99.90;;;;;;4999869;28;20042;-58
2024/01/20 04:52:06;;;;;;;31.52;12.75;;;-0.90;99.90;;;;;;4999192;28;20034;-58
2024/01/20 04:54:32;;;;;;;32.85;12.50;;;-0.90;99.90;;;;;;4982771;28;20038;-58
2024/01/20 04:56:58;;;;;;;33.95;12.90;;;-0.90;99.90;;;;;;4982747;28;20040;-58
2024/01/20 04:59:24;;;;;;;33.80;13.00;;;-0.90;99.90;;;;;;4998292;28;20075;-58
2024/01/20 05:01:52;;;;;;;30.17;13.27;;;-0.90;99.90;;;;;;4999525;28;20034;-58
2024/01/20 05:04:18;;;;;;;30.15;12.73;;;-0.90;99.90;;;;;;4999637;28;20109;-58
2024/01/20 05:06:45;;;;;;;32.80;13.10;;;-0.90;99.90;;;;;;4999543;28;20092;-57
2024/01/20 05:09:15;;;;;;;32.35;12.73;;;-0.90;99.90;;;;;;4999463;28;20030;-57
2024/01/20 05:11:41;;;;;;;29.98;11.73;;;-0.90;99.90;;;;;;4999483;28;20035;-57
2024/01/20 05:14:10;;;;;;;30.77;12.93;;;-1.00;99.90;;;;;;4999355;28;20063;-58
2024/01/20 05:16:36;;;;;;;38.45;14.07;;;-1.00;99.90;;;;;;4998625;28;20041;-58
2024/01/20 05:19:01;;;;;;;33.63;12.27;;;-0.90;99.90;;;;;;4999298;28;20453;-57
2024/01/20 05:21:27;;;;;;;34.35;13.02;;;-0.90;99.90;;;;;;4999153;28;20105;-57
2024/01/20 05:23:53;;;;;;;31.90;12.95;;;-0.90;99.90;;;;;;4999164;28;20052;-57
2024/01/20 05:26:19;;;;;;;29.65;12.90;;;-0.80;99.90;;;;;;4999111;28;20309;-58
2024/01/20 05:28:45;;;;;;;32.28;13.80;;;-0.80;99.90;;;;;;4999018;28;20034;-58
2024/01/20 05:31:10;;;;;;;33.45;13.65;;;-0.80;99.90;;;;;;4998908;28;20429;-57
2024/01/20 05:33:36;;;;;;;32.33;13.27;;;-0.80;99.90;;;;;;4999021;28;20159;-58
2024/01/20 05:36:03;;;;;;;35.60;14.02;;;-0.90;99.90;;;;;;4999450;28;20034;-57
2024/01/20 05:38:28;;;;;;;30.92;13.18;;;-0.90;99.90;;;;;;4998132;28;20042;-57
2024/01/20 05:40:56;;;;;;;31.48;13.18;;;-0.90;99.90;;;;;;4998836;28;20397;-58
2024/01/20 05:43:21;;;;;;;36.28;13.88;;;-0.90;99.90;;;;;;4998820;28;20038;-58
2024/01/20 05:45:47;;;;;;;26.52;13.05;;;-1.00;99.90;;;;;;4998819;28;20089;-58
2024/01/20 05:48:13;;;;;;;31.35;13.57;;;-0.90;99.90;;;;;;4998104;28;20048;-58
2024/01/20 05:50:39;;;;;;;32.78;13.93;;;-1.00;99.90;;;;;;4998987;28;20100;-58
2024/01/20 05:53:04;;;;;;;31.30;13.18;;;-0.90;99.90;;;;;;4998789;28;20031;-57
2024/01/20 05:55:30;;;;;;;31.45;13.18;;;-0.90;99.90;;;;;;4997835;28;20038;-58
2024/01/20 05:57:56;;;;;;;35.53;13.68;;;-0.80;99.90;;;;;;4998577;28;20053;-58
2024/01/20 06:00:23;;;;;;;31.75;14.18;;;-0.80;99.90;;;;;;4998704;28;20034;-58
2024/01/20 06:02:49;;;;;;;41.38;14.55;;;-0.80;99.90;;;;;;4997677;28;20295;-58
2024/01/20 06:05:15;;;;;;;41.72;14.57;;;-0.70;99.90;;;;;;4998340;28;20087;-58
2024/01/20 06:07:40;;;;;;;30.42;14.32;;;-0.70;99.90;;;;;;4998333;28;20034;-58
2024/01/20 06:10:07;;;;;;;32.75;15.02;;;-0.70;99.90;;;;;;4997532;28;20105;-58
2024/01/20 06:12:32;;;;;;;35.28;14.77;;;-0.80;99.90;;;;;;4997951;28;20034;-58
2024/01/20 06:14:59;;;;;;;34.22;14.68;;;-0.80;99.90;;;;;;4998187;28;20031;-58
2024/01/20 06:17:25;;;;;;;31.77;14.00;;;-0.80;99.90;;;;;;4997475;28;20081;-58
2024/01/20 06:19:51;;;;;;;30.70;14.55;;;-0.80;99.90;;;;;;4998114;28;20136;-59
2024/01/20 06:22:17;;;;;;;33.38;15.32;;;-0.80;99.90;;;;;;4998035;28;20378;-58
2024/01/20 06:24:43;;;;;;;36.75;15.75;;;-0.80;99.90;;;;;;4998322;28;20446;-58
2024/01/20 06:27:08;;;;;;;32.65;14.18;;;-0.80;99.90;;;;;;4997999;28;20057;-58
2024/01/20 06:29:39;;;;;;;35.17;16.40;;;-0.90;99.90;;;;;;4997889;28;20049;-58
2024/01/20 06:32:05;;;;;;;29.73;13.73;;;-1.00;99.90;;;;;;4997931;28;20092;-57
2024/01/20 06:34:31;;;;;;;30.58;13.82;;;-1.00;99.90;;;;;;4997857;28;20034;-57
2024/01/20 06:36:56;;;;;;;31.25;15.18;;;-1.00;99.90;;;;;;4997839;28;20461;-59
2024/01/20 06:39:22;;;;;;;35.13;15.68;;;-1.00;99.90;;;;;;4997741;28;20062;-58
2024/01/20 06:41:50;;;;;;;34.60;15.50;;;-0.90;99.90;;;;;;4996905;28;20088;-58
2024/01/20 06:44:16;;;;;;;36.85;15.70;;;-0.90;99.90;;;;;;4997596;28;20302;-58
2024/01/20 06:46:42;;;;;;;34.85;14.68;;;-0.90;99.90;;;;;;4997658;28;20030;-59
2024/01/20 06:49:08;;;;;;;33.08;14.50;;;-0.90;99.90;;;;;;4996809;28;20046;-58
2024/01/20 06:51:34;;;;;;;35.47;14.20;;;-0.90;99.90;;;;;;4997619;28;20432;-58
2024/01/20 06:54:00;;;;;;;31.60;14.15;;;-0.90;99.90;;;;;;4997644;28;20287;-58
2024/01/20 06:56:26;;;;;;;35.00;13.93;;;-1.00;99.90;;;;;;4997638;28;20038;-58
2024/01/20 06:58:54;;;;;;;30.33;12.35;;;-1.10;99.90;;;;;;4996663;28;20038;-58
2024/01/20 07:01:20;;;;;;;30.75;13.30;;;-1.20;99.90;;;;;;4997635;28;20034;-58
2024/01/20 07:03:46;;;;;;;27.63;11.77;;;-1.20;99.90;;;;;;4996729;28;20027;-58
2024/01/20 07:06:13;;;;;;;30.17;12.57;;;-1.30;99.90;;;;;;4996872;28;20027;-59
2024/01/20 07:08:40;;;;;;;25.65;12.65;;;-1.20;99.90;;;;;;4996787;28;20042;-58
2024/01/20 07:11:09;;;;;;;26.05;12.30;;;-1.20;99.90;;;;;;4997684;28;20350;-58
2024/01/20 07:13:37;;;;;;;32.13;14.40;;;-1.30;99.90;;;;;;4996665;28;20043;-57
2024/01/20 07:16:11;;;;;;;25.40;12.80;;;-1.20;99.90;;;;;;4996703;28;20034;-58
2024/01/20 07:18:38;;;;;;;32.75;13.57;;;-1.20;99.90;;;;;;4996647;28;20065;-58
2024/01/20 07:21:04;;;;;;;31.55;13.80;;;-1.10;99.90;;;;;;5012952;28;20042;-58
2024/01/20 07:23:30;;;;;;;32.20;13.88;;;-1.00;99.90;;;;;;4999458;28;20026;-58
2024/01/20 07:25:59;;;;;;;35.67;14.88;;;-1.00;99.90;;;;;;5001377;28;20100;-58
2024/01/20 07:28:26;;;;;;;32.50;15.00;;;-1.00;99.90;;;;;;5000634;28;20113;-58
2024/01/20 07:30:51;;;;;;;33.47;14.70;;;-1.00;99.90;;;;;;5001083;28;20038;-58
2024/01/20 07:33:17;;;;;;;35.85;15.00;;;-1.10;99.90;;;;;;5001289;28;20030;-58
2024/01/20 07:35:43;;;;;;;35.13;14.65;;;-1.00;99.90;;;;;;4983971;28;20425;-58
2024/01/20 07:38:09;;;;;;;34.03;14.82;;;-0.90;99.90;;;;;;5001028;28;20306;-58
2024/01/20 07:40:35;;;;;;;32.88;14.00;;;-0.90;99.90;;;;;;5000551;28;20081;-58
2024/01/20 07:43:01;;;;;;;36.65;16.55;;;-0.90;99.90;;;;;;5000852;28;20034;-58
2024/01/20 07:45:27;;;;;;;39.53;14.70;;;-1.00;99.90;;;;;;5000847;28;20166;-58
2024/01/20 07:47:55;;;;;;;37.95;14.75;;;-1.00;99.90;;;;;;4984262;28;20038;-59
2024/01/20 07:50:21;;;;;;;33.97;14.98;;;-1.10;99.90;;;;;;5000054;28;20386;-59
2024/01/20 07:52:47;;;;;;;32.90;14.75;;;-1.00;99.90;;;;;;5000724;28;20042;-59
2024/01/20 07:55:12;;;;;;;35.97;14.90;;;-1.00;99.90;;;;;;4999912;28;20406;-58
2024/01/20 07:57:39;;;;;;;38.90;15.48;;;-1.00;99.90;;;;;;5000485;28;20030;-58
2024/01/20 08:00:06;;;;;;;31.20;15.30;;;-1.00;99.90;;;;;;5000621;28;20044;-58
2024/01/20 08:02:34;;;;;;;39.45;15.60;;;-1.10;99.90;;;;;;5000520;28;20070;-59
2024/01/20 08:05:00;;;;;;;38.05;15.55;;;-1.00;99.90;;;;;;4983772;28;20349;-58
2024/01/20 08:07:26;;;;;;;35.00;16.23;;;-0.80;99.90;;;;;;5000525;28;20370;-58
2024/01/20 08:09:52;;;;;;;35.90;15.60;;;-0.90;99.90;;;;;;5000585;28;20069;-58
2024/01/20 08:12:17;;;;;;;33.38;14.00;;;-1.00;99.90;;;;;;5000480;28;20061;-58
2024/01/20 08:14:43;;;;;;;32.53;13.85;;;-1.00;99.90;;;;;;4999658;28;20069;-58
2024/01/20 08:17:09;;;;;;;37.03;15.38;;;-1.10;99.90;;;;;;5000427;28;20034;-57
2024/01/20 08:19:35;;;;;;;28.95;13.27;;;-1.10;99.90;;;;;;5000327;28;20394;-57
2024/01/20 08:22:01;;;;;;;40.47;15.88;;;-1.10;99.90;;;;;;4999719;28;20050;-58
2024/01/20 08:24:27;;;;;;;32.38;14.23;;;-1.10;99.90;;;;;;4999678;28;20416;-58
2024/01/20 08:26:53;;;;;;;35.40;15.27;;;-1.10;99.90;;;;;;4999588;28;20101;-58
2024/01/20 08:29:19;;;;;;;32.67;14.90;;;-1.00;99.90;;;;;;5000256;28;20117;-58
2024/01/20 08:31:46;;;;;;;31.80;14.10;;;-1.00;99.90;;;;;;4999173;28;20129;-58
2024/01/20 08:34:12;;;;;;;29.27;12.05;;;-0.90;99.90;;;;;;4999771;28;20353;-59
2024/01/20 08:36:38;;;;;;;31.00;14.50;;;-1.00;99.90;;;;;;5000116;28;20070;-58
2024/01/20 08:39:04;;;;;;;29.67;14.05;;;-0.90;99.90;;;;;;4999892;28;20042;-58
2024/01/20 08:41:29;;;;;;;27.25;13.40;;;-0.80;99.90;;;;;;5000024;28;20398;-58
2024/01/20 08:43:55;;;;;;;32.15;14.63;;;-0.80;99.90;;;;;;4999833;28;20118;-58
2024/01/20 08:46:21;;;;;;;29.45;14.82;;;-0.80;99.90;;;;;;4999077;28;20034;-58
2024/01/20 08:48:47;;;;;;;26.98;13.15;;;-0.80;99.90;;;;;;4999895;28;20034;-57
2024/01/20 08:51:13;;;;;;;30.58;14.48;;;-0.80;99.90;;;;;;5000039;28;20040;-59
2024/01/20 08:53:39;;;;;;;30.25;13.50;;;-0.80;99.90;;;;;;4999156;28;20498;-57
2024/01/20 08:56:05;;;;;;;29.30;13.05;;;-0.80;99.90;;;;;;4999843;28;20065;-57
2024/01/20 08:58:31;;;;;;;36.55;14.98;;;-0.70;99.90;;;;;;4999608;28;20139;-57
2024/01/20 09:00:57;;;;;;;33.42;15.63;;;-0.60;99.90;;;;;;5015191;28;20226;-59
2024/01/20 09:03:22;;;;;;;34.03;15.70;;;-0.50;99.90;;;;;;4999628;28;20023;-61
2024/01/20 09:05:48;;;;;;;33.92;15.60;;;-0.40;99.90;;;;;;4999645;28;20314;-58
2024/01/20 09:08:14;;;;;;;32.05;15.80;;;-0.50;99.90;;;;;;4999480;28;20030;-58
2024/01/20 09:10:40;;;;;;;28.35;13.38;;;-0.40;99.90;;;;;;4999500;28;20049;-59
2024/01/20 09:13:07;;;;;;;33.60;15.20;;;-0.40;99.90;;;;;;4999547;28;20096;-61
2024/01/20 09:15:33;;;;;;;31.60;13.73;;;-0.50;99.90;;;;;;4999401;28;20034;-61
2024/01/20 09:17:59;;;;;;;30.63;12.73;;;-0.50;99.90;;;;;;4999264;28;20022;-61
2024/01/20 09:20:25;;;;;;;31.77;14.00;;;-0.60;99.90;;;;;;4999160;28;20038;-60
2024/01/20 09:22:50;;;;;;;29.05;13.18;;;-0.70;99.90;;;;;;4998514;28;20050;-60
2024/01/20 09:25:17;;;;;;;32.08;13.63;;;-0.70;99.90;;;;;;4998477;28;20049;-60
2024/01/20 09:27:42;;;;;;;35.95;15.48;;;-0.60;99.90;;;;;;4998349;28;20038;-60
2024/01/20 09:30:09;;;;;;;32.67;14.52;;;-0.50;99.90;;;;;;4999088;28;20037;-60
2024/01/20 09:32:35;;;;;;;34.55;13.95;;;-0.40;99.90;;;;;;4998787;28;20125;-60
2024/01/20 09:35:02;;;;;;;30.98;13.80;;;-0.60;99.90;;;;;;4999031;28;20130;-59
2024/01/20 09:37:29;;;;;;;31.33;13.95;;;-0.70;99.90;;;;;;4998952;28;20053;-60
2024/01/20 09:40:00;;;;;;;30.77;13.52;;;-0.80;99.90;;;;;;4998196;28;20363;-61
2024/01/20 09:42:27;;;;;;;29.52;13.52;;;-0.80;99.90;;;;;;4998052;28;20133;-60
2024/01/20 09:44:53;;;;;;;30.00;13.05;;;-0.70;99.90;;;;;;4998125;28;20026;-60
2024/01/20 09:47:19;;;;;;;29.88;13.88;;;-0.50;99.90;;;;;;4998189;28;20057;-61
2024/01/20 09:49:45;;;;;;;32.88;13.52;;;-0.40;99.90;;;;;;4998799;28;20030;-61
2024/01/20 09:52:41;;;;;;;30.05;13.57;;;-0.30;99.90;;;;;;4981668;28;20031;-61
2024/01/20 09:55:19;;;;;;;29.23;13.07;;;-0.30;99.90;;;;;;4993953;28;20046;-62
2024/01/20 09:57:46;;;;;;;28.88;13.30;;;-0.30;99.90;;;;;;4981693;28;20120;-62
2024/01/20 10:00:13;;;;;;;27.77;13.70;;;-0.30;99.90;;;;;;4998525;28;20041;-61
2024/01/20 10:02:41;;;;;;;28.80;13.57;;;-0.50;99.90;;;;;;4998466;28;20271;-63
2024/01/20 10:05:11;;;;;;;26.63;12.50;;;-0.40;99.90;;;;;;4981626;28;20026;-61
2024/01/20 10:07:36;;;;;;;31.25;14.18;;;-0.30;99.90;;;;;;4998382;28;20034;-62
2024/01/20 10:10:02;;;;;;;28.95;13.70;;;-0.20;99.90;;;;;;4997808;28;20034;-62
2024/01/20 10:12:28;;;;;;;30.30;13.38;;;-0.30;99.90;;;;;;4998298;28;20334;-61
2024/01/20 10:14:54;;;;;;;28.50;13.20;;;-0.50;99.90;;;;;;4997674;28;20109;-62
2024/01/20 10:17:20;;;;;;;26.17;12.88;;;-0.50;99.90;;;;;;4997482;28;20132;-61
2024/01/20 10:19:46;;;;;;;25.90;12.48;;;-0.60;99.90;;;;;;4997477;28;20117;-62
2024/01/20 10:22:13;;;;;;;32.45;13.02;;;-0.60;99.90;;;;;;4998088;28;20041;-62
2024/01/20 10:24:48;;;;;;;28.65;12.73;;;-0.50;99.90;;;;;;4997431;28;20037;-62
2024/01/20 10:27:23;;;;;;;32.35;13.93;;;-0.60;99.90;;;;;;4997204;28;20022;-61
2024/01/20 10:29:49;;;;;;;30.75;13.10;;;-0.80;99.90;;;;;;4997934;28;20088;-62
2024/01/20 10:32:16;;;;;;;28.17;13.05;;;-0.80;99.90;;;;;;4980946;28;20054;-62
2024/01/20 10:34:43;;;;;;;30.63;13.65;;;-0.80;99.90;;;;;;4997918;28;20049;-61
2024/01/20 10:37:10;;;;;;;29.88;13.60;;;-0.70;99.90;;;;;;4997078;28;20022;-62
2024/01/20 10:39:44;;;;;;;30.20;14.48;;;-0.80;99.90;;;;;;4997746;28;20043;-61
2024/01/20 10:42:15;;;;;;;33.08;14.30;;;-1.00;99.90;;;;;;4997150;28;20117;-61
2024/01/20 10:44:59;;;;;;;32.42;15.50;;;-1.00;99.90;;;;;;4997599;28;20035;-61
2024/01/20 10:47:40;;;;;;;31.40;14.00;;;-0.90;99.90;;;;;;4996853;28;20113;-61
2024/01/20 10:50:08;;;;;;;25.65;13.07;;;-0.70;99.90;;;;;;4997326;28;20053;-62
2024/01/20 10:52:35;;;;;;;32.50;15.00;;;-0.60;99.90;;;;;;4997518;28;20049;-64
2024/01/20 10:55:02;;;;;;;38.88;17.30;;;-0.50;99.90;;;;;;4996769;28;20302;-62
2024/01/20 10:57:28;;;;;;;36.83;16.92;;;-0.40;99.90;;;;;;4996760;28;20026;-63
2024/01/20 10:59:57;;;;;;;40.63;18.50;;;-0.50;99.90;;;;;;5012991;28;20046;-63
2024/01/20 11:02:25;;;;;;;35.08;15.68;;;-0.50;99.90;;;;;;4997480;28;20042;-63
2024/01/20 11:04:51;;;;;;;27.13;13.07;;;-0.50;99.90;;;;;;4997520;28;20072;-62
2024/01/20 11:07:24;;;;;;;24.02;11.63;;;-0.70;99.90;;;;;;4996712;28;20034;-59
2024/01/20 11:09:57;;;;;;;26.35;12.00;;;-0.80;99.90;;;;;;4997438;28;20096;-61
2024/01/20 11:12:24;;;;;;;28.77;12.65;;;-0.90;99.90;;;;;;4997430;28;20121;-60
2024/01/20 11:14:55;;;;;;;23.83;11.43;;;-0.80;99.90;;;;;;4997680;28;20086;-61
2024/01/20 11:17:21;;;;;;;24.67;11.70;;;-0.70;99.90;;;;;;4997354;28;20030;-61
2024/01/20 11:19:47;;;;;;;24.38;11.77;;;-0.50;99.90;;;;;;4996564;28;20038;-61
2024/01/20 11:22:33;;;;;;;24.50;12.43;;;-0.20;99.90;;;;;;4997373;28;20105;-61
2024/01/20 11:25:04;;;;;;;20.30;9.68;;;0.30;99.90;;;;;;4996771;28;20104;-59
2024/01/20 11:27:30;;;;;;;17.50;9.60;;;0.20;99.90;;;;;;4996735;28;20356;-61
2024/01/20 11:30:07;;;;;;;20.05;8.98;;;0.10;99.90;;;;;;5012899;28;20080;-61
2024/01/20 11:32:33;;;;;;;19.60;9.63;;;-0.10;99.90;;;;;;4997136;28;20078;-61
2024/01/20 11:35:00;;;;;;;16.02;8.75;;;0.10;99.90;;;;;;4997209;28;20073;-61
2024/01/20 11:37:27;;;;;;;16.92;8.88;;;0.40;99.90;;;;;;4980424;28;20050;-61
2024/01/20 11:40:04;;;;;;;14.40;8.35;;;0.70;99.90;;;;;;4996320;28;20137;-64
2024/01/20 11:42:32;;;;;;;14.85;8.10;;;1.00;99.90;;;;;;4997224;28;20279;-64
2024/01/20 11:44:58;;;;;;;17.52;9.40;;;1.10;99.90;;;;;;4997264;28;20027;-64
2024/01/20 11:47:24;;;;;;;18.20;9.63;;;1.10;99.90;;;;;;4997217;28;20104;-63
2024/01/20 11:49:54;;;;;;;15.57;8.50;;;1.00;99.90;;;;;;4997086;28;20045;-61
2024/01/20 11:52:21;;;;;;;15.30;8.30;;;0.90;99.90;;;;;;4997021;28;20035;-61
2024/01/20 11:54:47;;;;;;;14.80;8.85;;;0.70;99.90;;;;;;4996958;28;20038;-62
2024/01/20 11:57:20;;;;;;;16.77;8.70;;;1.00;99.90;;;;;;4996975;28;20052;-63
2024/01/20 11:59:47;;;;;;;17.20;9.23;;;1.20;99.90;;;;;;4997007;28;20041;-63
2024/01/20 12:02:13;;;;;;;16.08;8.68;;;1.20;94.50;;;;;;4996862;28;20359;-63
2024/01/20 12:04:39;;;;;;;16.25;8.27;;;1.40;96.80;;;;;;4996884;28;20306;-64
2024/01/20 12:07:05;;;;;;;14.07;8.43;;;1.30;87.70;;;;;;4980050;28;20037;-63
2024/01/20 12:09:31;;;;;;;14.13;7.22;;;1.40;83.30;;;;;;4998599;28;20045;-63
2024/01/20 12:12:00;;;;;;;13.77;8.32;;;1.20;68.50;;;;;;4999814;28;20034;-64
2024/01/20 12:14:26;;;;;;;12.93;7.43;;;0.70;80.40;;;;;;5016132;28;20401;-63
2024/01/20 12:16:54;;;;;;;13.27;8.00;;;0.70;90.20;;;;;;5000181;28;20452;-63
2024/01/20 12:19:20;;;;;;;14.02;8.18;;;0.80;90.50;;;;;;5000505;28;20306;-64
2024/01/20 12:21:47;;;;;;;15.07;7.75;;;0.90;84.10;;;;;;5000529;28;20038;-66
2024/01/20 12:24:12;;;;;;;15.13;8.40;;;1.00;79.80;;;;;;4999452;28;20031;-64
2024/01/20 12:26:40;;;;;;;12.52;8.18;;;1.00;68.30;;;;;;5000461;28;20432;-63